• Join FlightAware (Why Join?)
  • Login
  • US Flag 
10:23PM EST


 

Airport Tracker/Info


-or-


 

Live Flight TrackerFlight Track Log ✈ N9058S ✈ 13-Oct-2013 ✈ KROA - KTTN

Flight Track Log - Related Links

Times and Time Zones

All times are in EDT time to prevent confusion due to time zone crossing. See the N9058S flight status page for this flight to view local times or setup timezone preferences in your user account.

Time Position Orientation Groundspeed Altitude Reporting Facility
EDT Latitude Longitude Course Direction KTS MPH feet Rate Location/Type
10:50AM 37.4930 -79.7033 97° East  Level Estimated
10:51AM 37.5208 -79.6579 77° East  Level Estimated
10:52AM 37.5040 -79.6045 112° Southeast  Level FlightAware Approximate
10:53AM 37.4871 -79.5512 112° Southeast  Level FlightAware Approximate
10:54AM 37.4702 -79.4978 112° Southeast  Level FlightAware Approximate
10:55AM 37.4533 -79.4445 112° Southeast  Level FlightAware Approximate
10:56AM 37.4822 -79.4002 78° East  Level Estimated
10:57AM 37.4694 -79.3451 106° East  Level FlightAware Approximate
10:58AM 37.4566 -79.2900 106° East  Level FlightAware Approximate
10:59AM 37.4861 -79.2463 67° East  Level Estimated
10:59AM 37.2178 -79.2769 76° East 171 197 6,900  Level Washington Center
11:00AM 37.5156 -79.2025 76° East  Level Estimated
11:00AM 37.2361 -79.2181 69° East 171 197 6,900  Level Washington Center
11:01AM 37.5045 -79.1468 104° East  Level FlightAware Approximate
11:02AM 37.4933 -79.0911 104° East  Level FlightAware Approximate
11:02AM 37.2789 -79.1131 63° Northeast 171 197 6,900  Level Washington Center
11:03AM 37.5233 -79.0479 76° East  Level Estimated
11:03AM 37.2972 -79.0617 66° East 171 197 6,900  Level Washington Center
11:04AM 37.3133 -79.0100 69° East 171 197 6,900  Level Washington Center
11:05AM 37.3314 -78.9586 66° East 171 197 6,900  Level Washington Center
11:06AM 37.3475 -78.9044 69° East 171 197 6,900  Level Washington Center
11:07AM 37.3658 -78.8453 69° East 171 197 6,900  Level Washington Center
11:08AM 37.3839 -78.7886 68° East 171 197 6,900  Level Washington Center
11:09AM 37.4022 -78.7344 67° East 171 197 6,900  Level Washington Center
11:10AM 37.4200 -78.6828 67° East 171 197 6,900  Level Washington Center
11:11AM 37.4361 -78.6336 68° East 171 197 6,900  Level Washington Center
11:12AM 37.4519 -78.5794 70° East 166 191 6,900  Level Washington Center
11:13AM 37.4678 -78.5250 70° East 166 191 6,900  Level Washington Center
11:14AM 37.4839 -78.4708 69° East 166 191 6,900  Level Washington Center
11:15AM 37.4997 -78.4111 72° East 166 191 7,000  Climbing Washington Center
11:16AM 37.5156 -78.3619 68° East 160 184 6,900 -60 Descending Washington Center
11:17AM 37.5336 -78.3075 67° East 160 184 6,900  Level Washington Center
11:18AM 37.5492 -78.2558 69° East 160 184 6,900  Level Washington Center
11:19AM 37.5669 -78.2092 64° Northeast 160 184 6,900  Level Washington Center
11:20AM 37.5786 -78.1519 76° East 155 178 6,900  Level Washington Center
11:21AM 37.5944 -78.1000 69° East 155 178 6,900  Level Washington Center
11:22AM 37.6100 -78.0481 69° East 160 184 6,900  Level Washington Center
11:23AM 37.6278 -77.9964 67° East 160 184 6,900  Level Washington Center
11:24AM 37.6667 -77.9000 63° Northeast 168 193 6,900  Level Potomac TRACON
11:25AM 37.6833 -77.8333 72° East 166 191 6,900  Level Potomac TRACON
11:26AM 37.6833 -77.8000 90° East 165 190 6,900  Level Potomac TRACON
11:27AM 37.7000 -77.7333 72° East 168 193 6,900  Level Potomac TRACON
11:28AM 37.7333 -77.6833 50° Northeast 168 193 6,900  Level Potomac TRACON
11:29AM 37.7500 -77.6333 67° East 164 189 6,900  Level Potomac TRACON
11:30AM 37.7500 -77.5833 90° East 168 193 6,900  Level Potomac TRACON
11:31AM 37.7667 -77.5333 67° East 170 196 6,900  Level Potomac TRACON
11:32AM 37.7833 -77.4667 72° East 164 189 6,900  Level Potomac TRACON
11:33AM 37.8000 -77.4167 67° East 176 203 6,900  Level Potomac TRACON
11:34AM 37.8167 -77.3833 58° Northeast 165 190 6,900  Level Potomac TRACON
11:35AM 37.8333 -77.3167 72° East 164 189 6,900  Level Potomac TRACON
11:36AM 37.8500 -77.2667 67° East 161 185 6,900  Level Potomac TRACON
11:37AM 37.8667 -77.2167 67° East 167 192 6,900  Level Potomac TRACON
11:38AM 37.8833 -77.1667 67° East 164 189 6,900  Level Potomac TRACON
11:39AM 37.9000 -77.1000 72° East 163 188 6,900  Level Potomac TRACON
11:40AM 37.9167 -77.0667 58° Northeast 154 177 6,900  Level Potomac TRACON
11:41AM 37.9228 -77.0292 78° East 155 178 6,900  Level Washington Center
11:42AM 37.9400 -76.9742 68° East 154 177 6,900  Level Washington Center
11:43AM 37.9531 -76.9244 72° East 157 181 6,900  Level Washington Center
11:44AM 37.9683 -76.8692 71° East 158 182 6,900  Level Washington Center
11:45AM 37.9897 -76.8222 60° Northeast 164 189 6,900  Level Washington Center
11:46AM 38.0192 -76.7858 44° Northeast 166 191 6,900  Level Washington Center
11:47AM 38.0531 -76.7414 46° Northeast 165 190 6,900  Level Washington Center
11:48AM 38.0825 -76.6997 48° Northeast 163 188 6,900  Level Washington Center
11:49AM 38.1142 -76.6581 46° Northeast 162 186 6,900  Level Washington Center
11:50AM 38.1439 -76.6189 46° Northeast 161 185 6,900  Level Washington Center
11:51AM 38.1756 -76.5717 50° Northeast 162 186 6,900  Level Washington Center
11:52AM 38.2050 -76.5272 50° Northeast 164 189 6,900  Level Washington Center
11:53AM 38.2367 -76.4878 44° Northeast 166 191 6,900  Level Washington Center
11:54AM 38.2744 -76.4381 46° Northeast 165 190 6,900  Level Washington Center
11:55AM 38.3039 -76.3933 50° Northeast 165 190 6,900  Level Washington Center
11:56AM 38.3439 -76.3567 36° Northeast 175 201 6,900  Level Washington Center
11:57AM 38.3817 -76.3253 33° Northeast 172 198 6,900  Level Washington Center
11:58AM 38.4192 -76.2914 35° Northeast 174 200 6,900  Level Washington Center
12:00PM 38.4833 -76.2333 35° Northeast 176 203 6,900  Level Potomac TRACON
12:01PM 38.5333 -76.1833 38° Northeast 184 212 6,900  Level Potomac TRACON
12:01PM 38.5667 -76.1500 38° Northeast 175 201 6,900  Level Potomac TRACON
12:02PM 38.6000 -76.1333 21° North 177 204 6,900  Level Potomac TRACON
12:03PM 38.6333 -76.1000 38° Northeast 171 197 6,900  Level Potomac TRACON
12:04PM 38.6667 -76.0667 38° Northeast 170 196 6,900  Level Potomac TRACON
12:05PM 38.7167 -76.0333 27° Northeast 167 192 6,900  Level Potomac TRACON
12:06PM 38.7500 -76.0000 38° Northeast 166 191 6,900  Level Potomac TRACON
12:07PM 38.7833 -75.9500 49° Northeast 166 191 6,900  Level Potomac TRACON
12:08PM 38.8333 -75.9167 27° Northeast 166 191 6,900 -120 Level Potomac TRACON
12:10PM 38.8623 -75.8543 38° Northeast  Level FlightAware Approximate
12:15PM 39.1000 -75.6667 349° North 194 223 6,000  Level Philadelphia TRACON
12:16PM 39.1167 -75.6667 360° North 188 216 5,800 -720 Descending Philadelphia TRACON
12:17PM 39.1093 -75.6075 38° Northeast  Level FlightAware Approximate
12:17PM 39.1833 -75.6833 349° North 194 223 5,000  Level Philadelphia TRACON
12:18PM 39.1446 -75.5722 38° Northeast  Level FlightAware Approximate
12:18PM 39.2333 -75.6667 14° North 180 207 4,900  Level Philadelphia TRACON
12:19PM 39.1799 -75.5369 38° Northeast  Level FlightAware Approximate
12:19PM 39.2833 -75.6667 360° North 173 199 5,000  Level Philadelphia TRACON
12:20PM 39.2151 -75.5015 38° Northeast  Level FlightAware Approximate
12:20PM 39.3333 -75.6667 360° North 182 209 4,900  Level Philadelphia TRACON
12:21PM 39.2586 -75.5105 349° North  Level FlightAware Approximate
12:21PM 39.3667 -75.6833 339° North 175 201 4,900  Level Philadelphia TRACON
12:22PM 39.4167 -75.7000 346° North 174 200 4,900  Level Philadelphia TRACON
12:23PM 39.4667 -75.7167 346° North 176 203 4,900  Level Philadelphia TRACON
12:24PM 39.5167 -75.7333 346° North 169 194 5,000  Climbing Philadelphia TRACON
12:25PM 39.5667 -75.7500 346° North 175 201 5,000 -60 Level Philadelphia TRACON
12:26PM 39.6000 -75.7667 339° North 171 197 4,900 -60 Descending Philadelphia TRACON
12:27PM 39.6500 -75.7833 346° North 170 196 4,900  Level Philadelphia TRACON
12:28PM 39.7000 -75.8000 346° North 171 197 4,900  Level Philadelphia TRACON
12:29PM 39.7500 -75.8167 346° North 169 194 4,900  Level Philadelphia TRACON
12:30PM 39.7833 -75.8000 21° North 163 188 4,900  Level Philadelphia TRACON
12:31PM 39.8333 -75.7667 27° Northeast 165 190 4,900  Level Philadelphia TRACON
12:32PM 39.8667 -75.7500 21° North 164 189 4,900  Level Philadelphia TRACON
12:33PM 39.9167 -75.7333 14° North 166 191 5,000  Climbing Philadelphia TRACON
12:34PM 39.9333 -75.6667 72° East 164 189 4,900 -60 Descending Philadelphia TRACON
12:35PM 39.9500 -75.6333 57° Northeast 158 182 4,900  Level Philadelphia TRACON
12:36PM 39.9833 -75.5667 57° Northeast 160 184 5,000  Climbing Philadelphia TRACON
12:37PM 40.0000 -75.5333 57° Northeast 161 185 4,900 -60 Descending Philadelphia TRACON
12:38PM 40.0167 -75.4833 66° East 160 184 4,900  Level Philadelphia TRACON
12:39PM 40.0500 -75.4333 49° Northeast 162 186 4,900  Level Philadelphia TRACON
12:40PM 40.0667 -75.3833 66° East 163 188 4,900  Level Philadelphia TRACON
12:41PM 40.0833 -75.3167 72° East 163 188 4,900 -120 Level Philadelphia TRACON
12:42PM 40.1000 -75.2667 66° East 159 183 4,700 -420 Descending Philadelphia TRACON
12:43PM 40.1333 -75.2167 49° Northeast 163 188 4,100 -600 Descending Philadelphia TRACON
12:44PM 40.1500 -75.1667 66° East 161 185 3,600 -540 Descending Philadelphia TRACON
12:45PM 40.1667 -75.1167 66° East 146 168 3,100 -360 Descending Philadelphia TRACON
12:46PM 40.1833 -75.0667 66° East 141 162 2,900 -300 Descending Philadelphia TRACON
12:47PM 40.1833 -75.0167 90° East 135 155 2,500 -480 Descending Philadelphia TRACON
12:48PM 40.2000 -74.9667 66° East 139 160 2,000 -360 Descending Philadelphia TRACON
12:49PM 40.2167 -74.9333 57° Northeast 125 144 1,800 -360 Descending Philadelphia TRACON
12:50PM 40.2333 -74.9000 57° Northeast 110 127 1,300 -420 Descending Philadelphia TRACON
12:51PM 40.2333 -74.8667 90° East 88 101 1,000 -360 Descending Philadelphia TRACON
12:52PM 40.2500 -74.8333 57° Northeast 90 104 600 -420 Descending Philadelphia TRACON
12:54PM 40.2667 -74.8000 53° Northeast  Level FlightAware Approximate